sensor_id;sensor_type;location;lat;lon;timestamp;temperature;humidity
34147;DHT22;20423;49.448;9.056;2023-02-28T00:00:52;-3.60;99.90
34147;DHT22;20423;49.448;9.056;2023-02-28T00:03:17;-3.60;99.90
34147;DHT22;20423;49.448;9.056;2023-02-28T00:05:43;-3.70;99.90
34147;DHT22;20423;49.448;9.056;2023-02-28T00:08:09;-3.80;99.90
34147;DHT22;20423;49.448;9.056;2023-02-28T00:10:35;-3.80;99.90
34147;DHT22;20423;49.448;9.056;2023-02-28T00:13:05;-3.80;99.90
34147;DHT22;20423;49.448;9.056;2023-02-28T00:15:32;-3.90;99.90
34147;DHT22;20423;49.448;9.056;2023-02-28T00:17:58;-4.00;99.90
34147;DHT22;20423;49.448;9.056;2023-02-28T00:20:24;-4.00;99.90
34147;DHT22;20423;49.448;9.056;2023-02-28T00:22:51;-4.10;99.90
34147;DHT22;20423;49.448;9.056;2023-02-28T00:25:20;-4.00;99.90
34147;DHT22;20423;49.448;9.056;2023-02-28T00:27:46;-4.00;99.90
34147;DHT22;20423;49.448;9.056;2023-02-28T00:30:15;-4.10;99.90
34147;DHT22;20423;49.448;9.056;2023-02-28T00:32:41;-4.10;99.90
34147;DHT22;20423;49.448;9.056;2023-02-28T00:35:08;-4.00;99.90
34147;DHT22;20423;49.448;9.056;2023-02-28T00:37:34;-4.00;99.90
34147;DHT22;20423;49.448;9.056;2023-02-28T00:40:00;-4.00;99.90
34147;DHT22;20423;49.448;9.056;2023-02-28T00:42:27;-4.10;99.90
34147;DHT22;20423;49.448;9.056;2023-02-28T00:44:53;-4.10;99.90
34147;DHT22;20423;49.448;9.056;2023-02-28T00:47:19;-4.10;99.90
34147;DHT22;20423;49.448;9.056;2023-02-28T00:49:45;-4.10;99.90
34147;DHT22;20423;49.448;9.056;2023-02-28T00:52:10;-4.10;99.90
34147;DHT22;20423;49.448;9.056;2023-02-28T00:54:36;-4.10;99.90
34147;DHT22;20423;49.448;9.056;2023-02-28T00:57:02;-4.10;99.90
34147;DHT22;20423;49.448;9.056;2023-02-28T00:59:28;-4.20;99.90
34147;DHT22;20423;49.448;9.056;2023-02-28T01:01:54;-4.30;99.90
34147;DHT22;20423;49.448;9.056;2023-02-28T01:04:21;-4.30;99.90
34147;DHT22;20423;49.448;9.056;2023-02-28T01:06:47;-4.30;99.90
34147;DHT22;20423;49.448;9.056;2023-02-28T01:09:12;-4.30;99.90
34147;DHT22;20423;49.448;9.056;2023-02-28T01:11:41;-4.30;99.90
34147;DHT22;20423;49.448;9.056;2023-02-28T01:14:12;-4.40;99.90
34147;DHT22;20423;49.448;9.056;2023-02-28T01:16:39;-4.40;99.90
34147;DHT22;20423;49.448;9.056;2023-02-28T01:19:04;-4.40;99.90
34147;DHT22;20423;49.448;9.056;2023-02-28T01:21:30;-4.50;99.90
34147;DHT22;20423;49.448;9.056;2023-02-28T01:23:58;-4.40;99.90
34147;DHT22;20423;49.448;9.056;2023-02-28T01:26:24;-4.40;99.90
34147;DHT22;20423;49.448;9.056;2023-02-28T01:28:51;-4.40;99.90
34147;DHT22;20423;49.448;9.056;2023-02-28T01:31:18;-4.40;99.90
34147;DHT22;20423;49.448;9.056;2023-02-28T01:34:03;-4.40;99.90
34147;DHT22;20423;49.448;9.056;2023-02-28T01:36:29;-4.40;99.90
34147;DHT22;20423;49.448;9.056;2023-02-28T01:38:55;-4.40;99.90
34147;DHT22;20423;49.448;9.056;2023-02-28T01:41:24;-4.50;99.90
34147;DHT22;20423;49.448;9.056;2023-02-28T01:44:02;-4.50;99.90
34147;DHT22;20423;49.448;9.056;2023-02-28T01:46:33;-4.50;99.90
34147;DHT22;20423;49.448;9.056;2023-02-28T01:49:12;-4.50;99.90
34147;DHT22;20423;49.448;9.056;2023-02-28T01:51:45;-4.50;99.90
34147;DHT22;20423;49.448;9.056;2023-02-28T01:54:20;-4.60;99.90
34147;DHT22;20423;49.448;9.056;2023-02-28T01:56:52;-4.60;99.90
34147;DHT22;20423;49.448;9.056;2023-02-28T01:59:29;-4.60;99.90
34147;DHT22;20423;49.448;9.056;2023-02-28T02:01:55;-4.70;99.90
34147;DHT22;20423;49.448;9.056;2023-02-28T02:04:23;-4.70;99.90
34147;DHT22;20423;49.448;9.056;2023-02-28T02:06:52;-4.70;99.90
34147;DHT22;20423;49.448;9.056;2023-02-28T02:09:18;-4.60;99.90
34147;DHT22;20423;49.448;9.056;2023-02-28T02:11:44;-4.60;99.90
34147;DHT22;20423;49.448;9.056;2023-02-28T02:14:35;-4.60;99.90
34147;DHT22;20423;49.448;9.056;2023-02-28T02:17:38;-4.60;99.90
34147;DHT22;20423;49.448;9.056;2023-02-28T02:26:10;-4.60;99.90
34147;DHT22;20423;49.448;9.056;2023-02-28T02:29:04;-4.60;99.90
34147;DHT22;20423;49.448;9.056;2023-02-28T02:31:39;-4.60;99.90
34147;DHT22;20423;49.448;9.056;2023-02-28T02:34:41;-4.60;99.90
34147;DHT22;20423;49.448;9.056;2023-02-28T02:37:48;-4.60;99.90
34147;DHT22;20423;49.448;9.056;2023-02-28T02:40:25;-4.70;99.90
34147;DHT22;20423;49.448;9.056;2023-02-28T02:42:59;-4.70;99.90
34147;DHT22;20423;49.448;9.056;2023-02-28T02:45:42;-4.60;99.90
34147;DHT22;20423;49.448;9.056;2023-02-28T02:48:13;-4.60;99.90
34147;DHT22;20423;49.448;9.056;2023-02-28T02:50:50;-4.60;99.90
34147;DHT22;20423;49.448;9.056;2023-02-28T02:53:19;-4.60;99.90
34147;DHT22;20423;49.448;9.056;2023-02-28T02:59:09;-4.70;99.90
34147;DHT22;20423;49.448;9.056;2023-02-28T03:01:37;-4.70;99.90
34147;DHT22;20423;49.448;9.056;2023-02-28T03:04:15;-4.70;99.90
34147;DHT22;20423;49.448;9.056;2023-02-28T03:06:41;-4.80;99.90
34147;DHT22;20423;49.448;9.056;2023-02-28T03:09:08;-4.70;99.90
34147;DHT22;20423;49.448;9.056;2023-02-28T03:11:35;-4.80;99.90
34147;DHT22;20423;49.448;9.056;2023-02-28T03:25:27;-4.90;99.90
34147;DHT22;20423;49.448;9.056;2023-02-28T03:30:26;-4.80;99.90
34147;DHT22;20423;49.448;9.056;2023-02-28T03:33:13;-4.80;99.90
34147;DHT22;20423;49.448;9.056;2023-02-28T03:35:47;-4.90;99.90
34147;DHT22;20423;49.448;9.056;2023-02-28T03:38:20;-4.80;99.90
34147;DHT22;20423;49.448;9.056;2023-02-28T03:40:51;-4.90;99.90
34147;DHT22;20423;49.448;9.056;2023-02-28T03:43:28;-4.90;99.90
34147;DHT22;20423;49.448;9.056;2023-02-28T03:45:56;-4.90;99.90
34147;DHT22;20423;49.448;9.056;2023-02-28T03:48:31;-4.90;99.90
34147;DHT22;20423;49.448;9.056;2023-02-28T03:50:59;-4.90;99.90
34147;DHT22;20423;49.448;9.056;2023-02-28T03:53:35;-4.90;99.90
34147;DHT22;20423;49.448;9.056;2023-02-28T03:56:15;-5.00;99.90
34147;DHT22;20423;49.448;9.056;2023-02-28T04:01:22;-5.10;99.90
34147;DHT22;20423;49.448;9.056;2023-02-28T04:03:49;-5.00;99.90
34147;DHT22;20423;49.448;9.056;2023-02-28T04:06:19;-5.10;99.90
34147;DHT22;20423;49.448;9.056;2023-02-28T04:08:45;-5.10;99.90
34147;DHT22;20423;49.448;9.056;2023-02-28T04:14:06;-5.00;99.90
34147;DHT22;20423;49.448;9.056;2023-02-28T04:16:35;-5.00;99.90
34147;DHT22;20423;49.448;9.056;2023-02-28T04:19:03;-5.00;99.90
34147;DHT22;20423;49.448;9.056;2023-02-28T04:21:45;-5.00;99.90
34147;DHT22;20423;49.448;9.056;2023-02-28T04:24:18;-5.00;99.90
34147;DHT22;20423;49.448;9.056;2023-02-28T04:26:46;-5.00;99.90
34147;DHT22;20423;49.448;9.056;2023-02-28T04:29:14;-5.00;99.90
34147;DHT22;20423;49.448;9.056;2023-02-28T04:31:40;-4.90;99.90
34147;DHT22;20423;49.448;9.056;2023-02-28T04:34:06;-4.90;99.90
34147;DHT22;20423;49.448;9.056;2023-02-28T04:36:32;-4.90;99.90
34147;DHT22;20423;49.448;9.056;2023-02-28T04:38:58;-4.90;99.90
34147;DHT22;20423;49.448;9.056;2023-02-28T04:41:24;-4.80;99.90
34147;DHT22;20423;49.448;9.056;2023-02-28T04:43:51;-4.70;99.90
34147;DHT22;20423;49.448;9.056;2023-02-28T04:46:18;-4.80;99.90
34147;DHT22;20423;49.448;9.056;2023-02-28T04:49:12;-4.70;99.90
34147;DHT22;20423;49.448;9.056;2023-02-28T04:51:38;-4.70;99.90
34147;DHT22;20423;49.448;9.056;2023-02-28T04:54:04;-4.70;99.90
34147;DHT22;20423;49.448;9.056;2023-02-28T04:56:30;-4.70;99.90
34147;DHT22;20423;49.448;9.056;2023-02-28T04:58:59;-4.80;99.90
34147;DHT22;20423;49.448;9.056;2023-02-28T05:01:27;-4.80;99.90
34147;DHT22;20423;49.448;9.056;2023-02-28T05:03:55;-4.80;99.90
34147;DHT22;20423;49.448;9.056;2023-02-28T05:06:23;-4.80;99.90
34147;DHT22;20423;49.448;9.056;2023-02-28T05:08:49;-4.90;99.90
34147;DHT22;20423;49.448;9.056;2023-02-28T05:11:24;-4.90;99.90
34147;DHT22;20423;49.448;9.056;2023-02-28T05:13:51;-4.90;99.90
34147;DHT22;20423;49.448;9.056;2023-02-28T05:16:17;-4.90;99.90
34147;DHT22;20423;49.448;9.056;2023-02-28T05:18:43;-5.00;99.90
34147;DHT22;20423;49.448;9.056;2023-02-28T05:21:47;-5.00;99.90
34147;DHT22;20423;49.448;9.056;2023-02-28T05:24:10;-4.90;99.90
34147;DHT22;20423;49.448;9.056;2023-02-28T05:26:39;-4.90;99.90
34147;DHT22;20423;49.448;9.056;2023-02-28T05:29:05;-4.90;99.90
34147;DHT22;20423;49.448;9.056;2023-02-28T05:31:31;-4.90;99.90
34147;DHT22;20423;49.448;9.056;2023-02-28T05:33:57;-4.90;99.90
34147;DHT22;20423;49.448;9.056;2023-02-28T05:36:23;-5.00;99.90
34147;DHT22;20423;49.448;9.056;2023-02-28T05:38:50;-5.00;99.90
34147;DHT22;20423;49.448;9.056;2023-02-28T05:41:17;-5.00;99.90
34147;DHT22;20423;49.448;9.056;2023-02-28T05:43:44;-5.10;99.90
34147;DHT22;20423;49.448;9.056;2023-02-28T05:46:12;-5.00;99.90
34147;DHT22;20423;49.448;9.056;2023-02-28T05:48:40;-5.10;99.90
34147;DHT22;20423;49.448;9.056;2023-02-28T05:51:07;-5.00;99.90
34147;DHT22;20423;49.448;9.056;2023-02-28T05:53:34;-5.00;99.90
34147;DHT22;20423;49.448;9.056;2023-02-28T05:55:59;-4.90;99.90
34147;DHT22;20423;49.448;9.056;2023-02-28T05:58:26;-4.90;99.90
34147;DHT22;20423;49.448;9.056;2023-02-28T06:00:56;-4.90;99.90
34147;DHT22;20423;49.448;9.056;2023-02-28T06:03:22;-4.90;99.90
34147;DHT22;20423;49.448;9.056;2023-02-28T06:05:47;-4.90;99.90
34147;DHT22;20423;49.448;9.056;2023-02-28T06:08:13;-4.90;99.90
34147;DHT22;20423;49.448;9.056;2023-02-28T06:10:39;-4.90;99.90
34147;DHT22;20423;49.448;9.056;2023-02-28T06:13:06;-4.90;99.90
34147;DHT22;20423;49.448;9.056;2023-02-28T06:15:32;-4.90;99.90
34147;DHT22;20423;49.448;9.056;2023-02-28T06:17:58;-4.90;99.90
34147;DHT22;20423;49.448;9.056;2023-02-28T06:20:25;-4.90;99.90
34147;DHT22;20423;49.448;9.056;2023-02-28T06:22:55;-4.90;99.90
34147;DHT22;20423;49.448;9.056;2023-02-28T06:25:21;-4.90;99.90
34147;DHT22;20423;49.448;9.056;2023-02-28T06:27:47;-4.90;99.90
34147;DHT22;20423;49.448;9.056;2023-02-28T06:30:14;-4.90;99.90
34147;DHT22;20423;49.448;9.056;2023-02-28T06:32:39;-4.90;99.90
34147;DHT22;20423;49.448;9.056;2023-02-28T06:35:05;-4.90;99.90
34147;DHT22;20423;49.448;9.056;2023-02-28T06:37:32;-4.90;99.90
34147;DHT22;20423;49.448;9.056;2023-02-28T06:39:58;-4.90;99.90
34147;DHT22;20423;49.448;9.056;2023-02-28T06:42:24;-4.80;99.90
34147;DHT22;20423;49.448;9.056;2023-02-28T06:44:54;-4.80;99.90
34147;DHT22;20423;49.448;9.056;2023-02-28T06:47:20;-4.80;99.90
34147;DHT22;20423;49.448;9.056;2023-02-28T06:49:47;-4.70;99.90
34147;DHT22;20423;49.448;9.056;2023-02-28T06:52:13;-4.70;99.90
34147;DHT22;20423;49.448;9.056;2023-02-28T06:54:39;-4.60;99.90
34147;DHT22;20423;49.448;9.056;2023-02-28T06:57:04;-4.60;99.90
34147;DHT22;20423;49.448;9.056;2023-02-28T06:59:30;-4.60;99.90
34147;DHT22;20423;49.448;9.056;2023-02-28T07:01:56;-4.60;99.90
34147;DHT22;20423;49.448;9.056;2023-02-28T07:04:22;-4.60;99.90
34147;DHT22;20423;49.448;9.056;2023-02-28T07:06:48;-4.50;99.90
34147;DHT22;20423;49.448;9.056;2023-02-28T07:09:14;-4.50;99.90
34147;DHT22;20423;49.448;9.056;2023-02-28T07:11:40;-4.50;99.90
34147;DHT22;20423;49.448;9.056;2023-02-28T07:14:06;-4.40;99.90
34147;DHT22;20423;49.448;9.056;2023-02-28T07:16:32;-4.40;99.90
34147;DHT22;20423;49.448;9.056;2023-02-28T07:18:58;-4.40;99.90
34147;DHT22;20423;49.448;9.056;2023-02-28T07:21:24;-4.30;99.90
34147;DHT22;20423;49.448;9.056;2023-02-28T07:23:50;-4.20;99.90
34147;DHT22;20423;49.448;9.056;2023-02-28T07:26:35;-4.20;99.90
34147;DHT22;20423;49.448;9.056;2023-02-28T07:29:00;-4.10;99.90
34147;DHT22;20423;49.448;9.056;2023-02-28T07:31:27;-4.00;99.90
34147;DHT22;20423;49.448;9.056;2023-02-28T07:33:53;-4.00;99.90
34147;DHT22;20423;49.448;9.056;2023-02-28T07:36:19;-3.90;99.90
34147;DHT22;20423;49.448;9.056;2023-02-28T07:38:47;-3.90;99.90
34147;DHT22;20423;49.448;9.056;2023-02-28T07:41:16;-3.80;99.90
34147;DHT22;20423;49.448;9.056;2023-02-28T07:43:42;-3.70;99.90
34147;DHT22;20423;49.448;9.056;2023-02-28T07:46:12;-3.70;99.90
34147;DHT22;20423;49.448;9.056;2023-02-28T07:48:38;-3.60;99.90
34147;DHT22;20423;49.448;9.056;2023-02-28T07:51:04;-3.50;99.90
34147;DHT22;20423;49.448;9.056;2023-02-28T07:53:30;-3.40;99.90
34147;DHT22;20423;49.448;9.056;2023-02-28T07:59:08;-3.30;99.90
34147;DHT22;20423;49.448;9.056;2023-02-28T08:01:34;-3.20;99.90
34147;DHT22;20423;49.448;9.056;2023-02-28T08:04:00;-3.20;99.90
34147;DHT22;20423;49.448;9.056;2023-02-28T08:06:26;-3.10;99.90
34147;DHT22;20423;49.448;9.056;2023-02-28T08:09:04;-3.10;99.90
34147;DHT22;20423;49.448;9.056;2023-02-28T08:11:29;-3.00;99.90
34147;DHT22;20423;49.448;9.056;2023-02-28T08:13:55;-2.90;99.90
34147;DHT22;20423;49.448;9.056;2023-02-28T08:16:21;-2.80;99.90
34147;DHT22;20423;49.448;9.056;2023-02-28T08:18:51;-2.80;99.90
34147;DHT22;20423;49.448;9.056;2023-02-28T08:21:18;-2.70;99.90
34147;DHT22;20423;49.448;9.056;2023-02-28T08:23:46;-2.70;99.90
34147;DHT22;20423;49.448;9.056;2023-02-28T08:26:12;-2.60;99.90
34147;DHT22;20423;49.448;9.056;2023-02-28T08:28:38;-2.60;99.90
34147;DHT22;20423;49.448;9.056;2023-02-28T08:31:12;-2.50;99.90
34147;DHT22;20423;49.448;9.056;2023-02-28T08:33:40;-2.40;99.90
34147;DHT22;20423;49.448;9.056;2023-02-28T08:36:08;-2.30;99.90
34147;DHT22;20423;49.448;9.056;2023-02-28T08:38:35;-2.20;99.90
34147;DHT22;20423;49.448;9.056;2023-02-28T08:41:03;-2.20;99.90
34147;DHT22;20423;49.448;9.056;2023-02-28T08:43:31;-2.10;99.90
34147;DHT22;20423;49.448;9.056;2023-02-28T08:46:04;-2.10;99.90
34147;DHT22;20423;49.448;9.056;2023-02-28T08:48:31;-2.00;99.90
34147;DHT22;20423;49.448;9.056;2023-02-28T08:53:24;-2.00;99.90
34147;DHT22;20423;49.448;9.056;2023-02-28T08:56:02;-1.90;99.90
34147;DHT22;20423;49.448;9.056;2023-02-28T08:58:28;-1.90;99.90
34147;DHT22;20423;49.448;9.056;2023-02-28T09:00:54;-1.90;99.90
34147;DHT22;20423;49.448;9.056;2023-02-28T09:03:21;-1.80;99.90
34147;DHT22;20423;49.448;9.056;2023-02-28T09:05:58;-1.80;99.90
34147;DHT22;20423;49.448;9.056;2023-02-28T09:08:26;-1.70;99.90
34147;DHT22;20423;49.448;9.056;2023-02-28T09:10:52;-1.70;99.90
34147;DHT22;20423;49.448;9.056;2023-02-28T09:13:20;-1.50;99.90
34147;DHT22;20423;49.448;9.056;2023-02-28T09:15:46;-1.50;99.90
34147;DHT22;20423;49.448;9.056;2023-02-28T09:18:12;-1.40;99.90
34147;DHT22;20423;49.448;9.056;2023-02-28T09:20:39;-1.20;99.90
34147;DHT22;20423;49.448;9.056;2023-02-28T09:23:06;-1.10;99.90
34147;DHT22;20423;49.448;9.056;2023-02-28T09:25:32;-1.00;99.90
34147;DHT22;20423;49.448;9.056;2023-02-28T09:27:58;-1.00;99.90
34147;DHT22;20423;49.448;9.056;2023-02-28T09:30:24;-1.00;99.90
34147;DHT22;20423;49.448;9.056;2023-02-28T09:32:50;-0.90;99.90
34147;DHT22;20423;49.448;9.056;2023-02-28T09:35:23;-0.90;99.90
34147;DHT22;20423;49.448;9.056;2023-02-28T09:37:50;-0.70;99.90
34147;DHT22;20423;49.448;9.056;2023-02-28T09:40:22;-0.50;99.90
34147;DHT22;20423;49.448;9.056;2023-02-28T09:42:51;-0.10;99.90
34147;DHT22;20423;49.448;9.056;2023-02-28T09:47:50;0.80;99.90
34147;DHT22;20423;49.448;9.056;2023-02-28T09:50:28;0.90;99.90
34147;DHT22;20423;49.448;9.056;2023-02-28T09:52:55;1.00;99.90
34147;DHT22;20423;49.448;9.056;2023-02-28T09:55:32;1.50;99.90
34147;DHT22;20423;49.448;9.056;2023-02-28T09:58:00;1.90;99.90
34147;DHT22;20423;49.448;9.056;2023-02-28T10:00:40;2.20;99.90
34147;DHT22;20423;49.448;9.056;2023-02-28T10:03:19;2.40;99.90
34147;DHT22;20423;49.448;9.056;2023-02-28T10:08:56;2.50;99.90
34147;DHT22;20423;49.448;9.056;2023-02-28T10:11:25;2.10;99.90
34147;DHT22;20423;49.448;9.056;2023-02-28T10:14:05;2.30;99.90
34147;DHT22;20423;49.448;9.056;2023-02-28T10:16:39;1.90;99.90
34147;DHT22;20423;49.448;9.056;2023-02-28T10:21:46;2.80;99.90
34147;DHT22;20423;49.448;9.056;2023-02-28T10:24:46;2.90;99.90
34147;DHT22;20423;49.448;9.056;2023-02-28T10:27:22;3.50;99.90
34147;DHT22;20423;49.448;9.056;2023-02-28T10:29:53;3.50;99.90
34147;DHT22;20423;49.448;9.056;2023-02-28T10:32:40;3.30;99.90
34147;DHT22;20423;49.448;9.056;2023-02-28T10:37:37;3.20;99.90
34147;DHT22;20423;49.448;9.056;2023-02-28T10:40:06;3.70;99.90
34147;DHT22;20423;49.448;9.056;2023-02-28T10:42:33;3.50;99.90
34147;DHT22;20423;49.448;9.056;2023-02-28T10:45:12;3.40;99.90
34147;DHT22;20423;49.448;9.056;2023-02-28T10:47:51;3.40;99.90
34147;DHT22;20423;49.448;9.056;2023-02-28T10:50:37;3.80;99.90
34147;DHT22;20423;49.448;9.056;2023-02-28T10:53:16;4.10;99.90
34147;DHT22;20423;49.448;9.056;2023-02-28T10:55:43;3.80;99.90
34147;DHT22;20423;49.448;9.056;2023-02-28T11:01:18;3.80;99.90
34147;DHT22;20423;49.448;9.056;2023-02-28T11:03:45;4.20;99.90
34147;DHT22;20423;49.448;9.056;2023-02-28T11:11:44;4.80;99.90
34147;DHT22;20423;49.448;9.056;2023-02-28T11:14:21;4.10;99.90
34147;DHT22;20423;49.448;9.056;2023-02-28T11:16:48;3.30;99.90
34147;DHT22;20423;49.448;9.056;2023-02-28T11:19:20;3.00;99.90
34147;DHT22;20423;49.448;9.056;2023-02-28T11:22:02;3.10;99.90
34147;DHT22;20423;49.448;9.056;2023-02-28T11:24:33;2.80;99.90
34147;DHT22;20423;49.448;9.056;2023-02-28T11:26:59;2.50;99.90
34147;DHT22;20423;49.448;9.056;2023-02-28T11:29:47;2.40;99.90
34147;DHT22;20423;49.448;9.056;2023-02-28T11:32:15;2.80;99.90
34147;DHT22;20423;49.448;9.056;2023-02-28T11:34:42;3.40;99.90
34147;DHT22;20423;49.448;9.056;2023-02-28T11:37:14;3.70;99.90
34147;DHT22;20423;49.448;9.056;2023-02-28T11:39:40;3.90;99.90
34147;DHT22;20423;49.448;9.056;2023-02-28T11:48:01;4.90;99.90
34147;DHT22;20423;49.448;9.056;2023-02-28T11:50:47;4.80;99.90
34147;DHT22;20423;49.448;9.056;2023-02-28T11:53:33;5.10;99.90
34147;DHT22;20423;49.448;9.056;2023-02-28T11:56:53;5.20;99.90
34147;DHT22;20423;49.448;9.056;2023-02-28T12:01:45;5.70;99.90
34147;DHT22;20423;49.448;9.056;2023-02-28T12:07:27;6.00;99.90
34147;DHT22;20423;49.448;9.056;2023-02-28T12:10:19;6.50;99.20
34147;DHT22;20423;49.448;9.056;2023-02-28T12:20:34;6.40;96.50
34147;DHT22;20423;49.448;9.056;2023-02-28T12:25:55;6.30;96.50
34147;DHT22;20423;49.448;9.056;2023-02-28T12:28:29;5.30;97.50
34147;DHT22;20423;49.448;9.056;2023-02-28T12:31:09;4.50;99.90
34147;DHT22;20423;49.448;9.056;2023-02-28T12:33:40;4.20;99.90
34147;DHT22;20423;49.448;9.056;2023-02-28T12:36:13;3.70;99.90
34147;DHT22;20423;49.448;9.056;2023-02-28T12:38:54;3.40;99.90
34147;DHT22;20423;49.448;9.056;2023-02-28T12:44:11;2.50;99.90
34147;DHT22;20423;49.448;9.056;2023-02-28T12:46:44;2.70;99.90
34147;DHT22;20423;49.448;9.056;2023-02-28T12:49:31;3.10;99.90
34147;DHT22;20423;49.448;9.056;2023-02-28T12:52:00;3.30;99.90
34147;DHT22;20423;49.448;9.056;2023-02-28T12:59:55;3.10;99.90
34147;DHT22;20423;49.448;9.056;2023-02-28T13:10:49;3.10;99.90
34147;DHT22;20423;49.448;9.056;2023-02-28T13:13:28;3.10;99.90
34147;DHT22;20423;49.448;9.056;2023-02-28T13:16:06;2.70;99.90
34147;DHT22;20423;49.448;9.056;2023-02-28T13:21:03;2.40;99.90
34147;DHT22;20423;49.448;9.056;2023-02-28T13:26:05;2.50;99.90
34147;DHT22;20423;49.448;9.056;2023-02-28T13:31:25;2.50;99.90
34147;DHT22;20423;49.448;9.056;2023-02-28T13:36:24;2.50;99.90
34147;DHT22;20423;49.448;9.056;2023-02-28T13:38:51;2.30;99.90
34147;DHT22;20423;49.448;9.056;2023-02-28T13:44:21;2.20;99.90
34147;DHT22;20423;49.448;9.056;2023-02-28T14:00:20;1.90;99.90
34147;DHT22;20423;49.448;9.056;2023-02-28T14:03:15;1.70;99.90
34147;DHT22;20423;49.448;9.056;2023-02-28T14:05:43;1.60;99.90
34147;DHT22;20423;49.448;9.056;2023-02-28T14:08:18;1.60;99.90
34147;DHT22;20423;49.448;9.056;2023-02-28T14:10:51;1.70;99.90
34147;DHT22;20423;49.448;9.056;2023-02-28T14:13:40;2.00;99.90
34147;DHT22;20423;49.448;9.056;2023-02-28T14:16:12;2.00;99.90
34147;DHT22;20423;49.448;9.056;2023-02-28T14:18:42;1.90;99.90
34147;DHT22;20423;49.448;9.056;2023-02-28T14:21:21;1.80;99.90
34147;DHT22;20423;49.448;9.056;2023-02-28T14:27:04;1.90;99.90
34147;DHT22;20423;49.448;9.056;2023-02-28T14:30:32;1.70;99.90
34147;DHT22;20423;49.448;9.056;2023-02-28T14:38:51;1.80;99.90
34147;DHT22;20423;49.448;9.056;2023-02-28T14:43:52;1.60;99.90
34147;DHT22;20423;49.448;9.056;2023-02-28T14:46:18;1.60;99.90
34147;DHT22;20423;49.448;9.056;2023-02-28T14:48:47;1.60;99.90
34147;DHT22;20423;49.448;9.056;2023-02-28T14:51:18;1.60;99.90
34147;DHT22;20423;49.448;9.056;2023-02-28T14:53:49;1.70;99.90
34147;DHT22;20423;49.448;9.056;2023-02-28T14:56:30;1.70;99.90
34147;DHT22;20423;49.448;9.056;2023-02-28T14:59:23;1.60;99.90
34147;DHT22;20423;49.448;9.056;2023-02-28T15:01:48;1.70;99.90
34147;DHT22;20423;49.448;9.056;2023-02-28T15:04:27;1.60;99.90
34147;DHT22;20423;49.448;9.056;2023-02-28T15:07:14;1.50;99.90
34147;DHT22;20423;49.448;9.056;2023-02-28T15:09:40;1.50;99.90
34147;DHT22;20423;49.448;9.056;2023-02-28T15:12:25;1.60;99.90
34147;DHT22;20423;49.448;9.056;2023-02-28T15:14:51;1.40;99.90
34147;DHT22;20423;49.448;9.056;2023-02-28T15:17:23;1.40;99.90
34147;DHT22;20423;49.448;9.056;2023-02-28T15:19:52;1.50;99.90
34147;DHT22;20423;49.448;9.056;2023-02-28T15:22:26;1.40;99.90
34147;DHT22;20423;49.448;9.056;2023-02-28T15:24:54;1.40;99.90
34147;DHT22;20423;49.448;9.056;2023-02-28T15:27:26;1.30;99.90
34147;DHT22;20423;49.448;9.056;2023-02-28T15:30:00;1.40;99.90
34147;DHT22;20423;49.448;9.056;2023-02-28T15:34:58;1.50;99.90
34147;DHT22;20423;49.448;9.056;2023-02-28T15:37:46;1.40;99.90
34147;DHT22;20423;49.448;9.056;2023-02-28T15:43:05;1.30;99.90
34147;DHT22;20423;49.448;9.056;2023-02-28T15:48:31;1.40;99.90
34147;DHT22;20423;49.448;9.056;2023-02-28T15:51:07;1.30;99.90
34147;DHT22;20423;49.448;9.056;2023-02-28T15:53:37;1.20;99.90
34147;DHT22;20423;49.448;9.056;2023-02-28T15:56:23;1.20;99.90
34147;DHT22;20423;49.448;9.056;2023-02-28T15:58:52;1.30;99.90
34147;DHT22;20423;49.448;9.056;2023-02-28T16:01:31;1.30;99.90
34147;DHT22;20423;49.448;9.056;2023-02-28T16:04:04;1.30;99.90
34147;DHT22;20423;49.448;9.056;2023-02-28T16:06:38;1.30;99.90
34147;DHT22;20423;49.448;9.056;2023-02-28T16:09:08;1.20;99.90
34147;DHT22;20423;49.448;9.056;2023-02-28T16:11:37;1.30;99.90
34147;DHT22;20423;49.448;9.056;2023-02-28T16:14:04;1.30;99.90
34147;DHT22;20423;49.448;9.056;2023-02-28T16:16:31;1.20;99.90
34147;DHT22;20423;49.448;9.056;2023-02-28T16:18:57;1.20;99.90
34147;DHT22;20423;49.448;9.056;2023-02-28T16:21:23;1.10;99.90
34147;DHT22;20423;49.448;9.056;2023-02-28T16:23:50;1.10;99.90
34147;DHT22;20423;49.448;9.056;2023-02-28T16:26:21;1.10;99.90
34147;DHT22;20423;49.448;9.056;2023-02-28T16:28:48;1.10;99.90
34147;DHT22;20423;49.448;9.056;2023-02-28T16:31:14;1.00;99.90
34147;DHT22;20423;49.448;9.056;2023-02-28T16:33:42;0.90;99.90
34147;DHT22;20423;49.448;9.056;2023-02-28T16:36:21;0.90;99.90
34147;DHT22;20423;49.448;9.056;2023-02-28T16:38:47;0.90;99.90
34147;DHT22;20423;49.448;9.056;2023-02-28T16:41:20;0.80;99.90
34147;DHT22;20423;49.448;9.056;2023-02-28T16:43:49;0.80;99.90
34147;DHT22;20423;49.448;9.056;2023-02-28T16:46:16;0.70;99.90
34147;DHT22;20423;49.448;9.056;2023-02-28T16:48:54;0.70;99.90
34147;DHT22;20423;49.448;9.056;2023-02-28T16:51:20;0.60;99.90
34147;DHT22;20423;49.448;9.056;2023-02-28T16:53:46;0.50;99.90
34147;DHT22;20423;49.448;9.056;2023-02-28T16:56:20;0.50;99.90
34147;DHT22;20423;49.448;9.056;2023-02-28T16:58:48;0.40;99.90
34147;DHT22;20423;49.448;9.056;2023-02-28T17:01:14;0.30;99.90
34147;DHT22;20423;49.448;9.056;2023-02-28T17:03:40;0.20;99.90
34147;DHT22;20423;49.448;9.056;2023-02-28T17:06:15;0.00;99.90
34147;DHT22;20423;49.448;9.056;2023-02-28T17:08:41;-0.10;99.90
34147;DHT22;20423;49.448;9.056;2023-02-28T17:11:09;-0.20;99.90
34147;DHT22;20423;49.448;9.056;2023-02-28T17:13:34;-0.20;99.90
34147;DHT22;20423;49.448;9.056;2023-02-28T17:16:00;-0.30;99.90
34147;DHT22;20423;49.448;9.056;2023-02-28T17:18:26;-0.40;99.90
34147;DHT22;20423;49.448;9.056;2023-02-28T17:20:54;-0.50;99.90
34147;DHT22;20423;49.448;9.056;2023-02-28T17:23:19;-0.50;99.90
34147;DHT22;20423;49.448;9.056;2023-02-28T17:25:45;-0.50;99.90
34147;DHT22;20423;49.448;9.056;2023-02-28T17:28:21;-0.60;99.90
34147;DHT22;20423;49.448;9.056;2023-02-28T17:30:48;-0.60;99.90
34147;DHT22;20423;49.448;9.056;2023-02-28T17:33:15;-0.60;99.90
34147;DHT22;20423;49.448;9.056;2023-02-28T17:35:40;-0.60;99.90
34147;DHT22;20423;49.448;9.056;2023-02-28T17:41:21;-0.70;99.90
34147;DHT22;20423;49.448;9.056;2023-02-28T17:43:47;-0.80;99.90
34147;DHT22;20423;49.448;9.056;2023-02-28T17:46:22;-0.80;99.90
34147;DHT22;20423;49.448;9.056;2023-02-28T17:48:49;-0.80;99.90
34147;DHT22;20423;49.448;9.056;2023-02-28T17:51:16;-0.90;99.90
34147;DHT22;20423;49.448;9.056;2023-02-28T17:53:42;-1.00;99.90
34147;DHT22;20423;49.448;9.056;2023-02-28T17:56:21;-1.10;99.90
34147;DHT22;20423;49.448;9.056;2023-02-28T17:58:49;-1.30;99.90
34147;DHT22;20423;49.448;9.056;2023-02-28T18:01:15;-1.30;99.90
34147;DHT22;20423;49.448;9.056;2023-02-28T18:03:41;-1.20;99.90
34147;DHT22;20423;49.448;9.056;2023-02-28T18:06:08;-1.10;99.90
34147;DHT22;20423;49.448;9.056;2023-02-28T18:08:35;-1.10;99.90
34147;DHT22;20423;49.448;9.056;2023-02-28T18:11:01;-1.20;99.90
34147;DHT22;20423;49.448;9.056;2023-02-28T18:13:58;-1.20;99.90
34147;DHT22;20423;49.448;9.056;2023-02-28T18:16:23;-1.20;99.90
34147;DHT22;20423;49.448;9.056;2023-02-28T18:18:49;-1.20;99.90